sensor_id;sensor_type;location;lat;lon;timestamp;P1;durP1;ratioP1;P2;durP2;ratioP2
315;SDS011;14128;48.686;9.738;2022-12-20T00:01:20;25.20;;;16.07;;
315;SDS011;14128;48.686;9.738;2022-12-20T00:03:48;27.87;;;16.40;;
315;SDS011;14128;48.686;9.738;2022-12-20T00:06:16;20.73;;;13.60;;
315;SDS011;14128;48.686;9.738;2022-12-20T00:08:44;21.83;;;14.10;;
315;SDS011;14128;48.686;9.738;2022-12-20T00:11:12;20.00;;;13.83;;
315;SDS011;14128;48.686;9.738;2022-12-20T00:13:39;23.30;;;15.17;;
315;SDS011;14128;48.686;9.738;2022-12-20T00:16:07;24.77;;;16.70;;
315;SDS011;14128;48.686;9.738;2022-12-20T00:18:36;25.37;;;17.70;;
315;SDS011;14128;48.686;9.738;2022-12-20T00:21:05;21.47;;;16.17;;
315;SDS011;14128;48.686;9.738;2022-12-20T00:23:33;25.23;;;14.97;;
315;SDS011;14128;48.686;9.738;2022-12-20T00:26:00;30.63;;;16.40;;
315;SDS011;14128;48.686;9.738;2022-12-20T00:28:30;26.47;;;15.80;;
315;SDS011;14128;48.686;9.738;2022-12-20T00:30:57;24.37;;;14.70;;
315;SDS011;14128;48.686;9.738;2022-12-20T00:33:24;22.53;;;12.70;;
315;SDS011;14128;48.686;9.738;2022-12-20T00:35:53;19.93;;;13.83;;
315;SDS011;14128;48.686;9.738;2022-12-20T00:38:20;17.93;;;12.60;;
315;SDS011;14128;48.686;9.738;2022-12-20T00:40:47;17.17;;;13.00;;
315;SDS011;14128;48.686;9.738;2022-12-20T00:43:23;23.40;;;15.27;;
315;SDS011;14128;48.686;9.738;2022-12-20T00:45:51;23.60;;;14.10;;
315;SDS011;14128;48.686;9.738;2022-12-20T00:48:18;20.00;;;14.30;;
315;SDS011;14128;48.686;9.738;2022-12-20T00:50:45;23.80;;;14.53;;
315;SDS011;14128;48.686;9.738;2022-12-20T00:53:12;18.07;;;15.80;;
315;SDS011;14128;48.686;9.738;2022-12-20T00:55:39;23.00;;;15.47;;
315;SDS011;14128;48.686;9.738;2022-12-20T00:58:07;29.83;;;15.83;;
315;SDS011;14128;48.686;9.738;2022-12-20T01:00:34;20.20;;;13.40;;
315;SDS011;14128;48.686;9.738;2022-12-20T01:03:02;20.20;;;13.73;;
315;SDS011;14128;48.686;9.738;2022-12-20T01:05:29;24.90;;;14.30;;
315;SDS011;14128;48.686;9.738;2022-12-20T01:07:56;23.47;;;14.90;;
315;SDS011;14128;48.686;9.738;2022-12-20T01:10:23;21.80;;;14.33;;
315;SDS011;14128;48.686;9.738;2022-12-20T01:12:50;22.03;;;14.17;;
315;SDS011;14128;48.686;9.738;2022-12-20T01:15:17;20.83;;;12.90;;
315;SDS011;14128;48.686;9.738;2022-12-20T01:17:45;17.93;;;13.87;;
315;SDS011;14128;48.686;9.738;2022-12-20T01:20:13;20.63;;;13.07;;
315;SDS011;14128;48.686;9.738;2022-12-20T01:22:41;24.47;;;15.37;;
315;SDS011;14128;48.686;9.738;2022-12-20T01:25:07;18.63;;;13.23;;
315;SDS011;14128;48.686;9.738;2022-12-20T01:27:34;18.03;;;11.87;;
315;SDS011;14128;48.686;9.738;2022-12-20T01:30:01;20.37;;;13.33;;
315;SDS011;14128;48.686;9.738;2022-12-20T01:32:28;18.07;;;11.40;;
315;SDS011;14128;48.686;9.738;2022-12-20T01:34:55;18.63;;;12.10;;
315;SDS011;14128;48.686;9.738;2022-12-20T01:37:23;21.07;;;12.27;;
315;SDS011;14128;48.686;9.738;2022-12-20T01:39:50;22.00;;;12.77;;
315;SDS011;14128;48.686;9.738;2022-12-20T01:42:17;20.70;;;13.77;;
315;SDS011;14128;48.686;9.738;2022-12-20T01:44:52;21.00;;;11.83;;
315;SDS011;14128;48.686;9.738;2022-12-20T01:47:21;17.23;;;12.23;;
315;SDS011;14128;48.686;9.738;2022-12-20T01:49:50;22.50;;;13.40;;
315;SDS011;14128;48.686;9.738;2022-12-20T01:52:21;23.53;;;14.80;;
315;SDS011;14128;48.686;9.738;2022-12-20T01:54:59;20.33;;;13.47;;
315;SDS011;14128;48.686;9.738;2022-12-20T01:57:31;20.80;;;12.40;;
315;SDS011;14128;48.686;9.738;2022-12-20T02:00:03;16.13;;;11.33;;
315;SDS011;14128;48.686;9.738;2022-12-20T02:02:32;18.20;;;11.37;;
315;SDS011;14128;48.686;9.738;2022-12-20T02:04:59;17.33;;;12.10;;
315;SDS011;14128;48.686;9.738;2022-12-20T02:07:28;14.40;;;10.10;;
315;SDS011;14128;48.686;9.738;2022-12-20T02:09:59;21.67;;;12.57;;
315;SDS011;14128;48.686;9.738;2022-12-20T02:12:28;14.40;;;9.90;;
315;SDS011;14128;48.686;9.738;2022-12-20T02:15:05;16.47;;;10.63;;
315;SDS011;14128;48.686;9.738;2022-12-20T02:18:03;16.17;;;12.50;;
315;SDS011;14128;48.686;9.738;2022-12-20T02:27:20;15.37;;;10.23;;
315;SDS011;14128;48.686;9.738;2022-12-20T02:30:04;14.80;;;10.67;;
315;SDS011;14128;48.686;9.738;2022-12-20T02:32:34;17.50;;;12.70;;
315;SDS011;14128;48.686;9.738;2022-12-20T02:35:06;20.23;;;11.83;;
315;SDS011;14128;48.686;9.738;2022-12-20T02:37:34;15.53;;;11.10;;
315;SDS011;14128;48.686;9.738;2022-12-20T02:40:01;18.83;;;10.80;;
315;SDS011;14128;48.686;9.738;2022-12-20T02:42:30;15.33;;;12.40;;
315;SDS011;14128;48.686;9.738;2022-12-20T02:45:00;17.60;;;10.33;;
315;SDS011;14128;48.686;9.738;2022-12-20T02:47:41;13.60;;;9.33;;
315;SDS011;14128;48.686;9.738;2022-12-20T02:50:13;13.83;;;10.27;;
315;SDS011;14128;48.686;9.738;2022-12-20T02:52:42;16.80;;;11.67;;
315;SDS011;14128;48.686;9.738;2022-12-20T02:55:09;18.33;;;10.37;;
315;SDS011;14128;48.686;9.738;2022-12-20T02:57:38;17.57;;;9.47;;
315;SDS011;14128;48.686;9.738;2022-12-20T03:00:13;16.80;;;10.73;;
315;SDS011;14128;48.686;9.738;2022-12-20T03:02:42;12.53;;;8.60;;
315;SDS011;14128;48.686;9.738;2022-12-20T03:05:27;12.47;;;8.27;;
315;SDS011;14128;48.686;9.738;2022-12-20T03:07:55;10.20;;;8.30;;
315;SDS011;14128;48.686;9.738;2022-12-20T03:10:21;14.80;;;10.07;;
315;SDS011;14128;48.686;9.738;2022-12-20T03:12:49;13.80;;;8.40;;
315;SDS011;14128;48.686;9.738;2022-12-20T03:15:17;19.10;;;10.70;;
315;SDS011;14128;48.686;9.738;2022-12-20T03:17:44;14.90;;;9.53;;
315;SDS011;14128;48.686;9.738;2022-12-20T03:20:11;13.07;;;9.77;;
315;SDS011;14128;48.686;9.738;2022-12-20T03:22:38;10.13;;;8.50;;
315;SDS011;14128;48.686;9.738;2022-12-20T03:25:05;13.87;;;9.57;;
315;SDS011;14128;48.686;9.738;2022-12-20T03:27:32;15.97;;;11.47;;
315;SDS011;14128;48.686;9.738;2022-12-20T03:29:59;14.63;;;10.07;;
315;SDS011;14128;48.686;9.738;2022-12-20T03:32:27;12.77;;;9.20;;
315;SDS011;14128;48.686;9.738;2022-12-20T03:34:54;15.80;;;9.37;;
315;SDS011;14128;48.686;9.738;2022-12-20T03:37:21;19.97;;;9.23;;
315;SDS011;14128;48.686;9.738;2022-12-20T03:39:48;14.20;;;8.93;;
315;SDS011;14128;48.686;9.738;2022-12-20T03:42:15;16.37;;;9.73;;
315;SDS011;14128;48.686;9.738;2022-12-20T03:44:41;13.00;;;9.93;;
315;SDS011;14128;48.686;9.738;2022-12-20T03:47:08;12.77;;;9.40;;
315;SDS011;14128;48.686;9.738;2022-12-20T03:49:36;12.90;;;8.70;;
315;SDS011;14128;48.686;9.738;2022-12-20T03:52:03;12.70;;;8.80;;
315;SDS011;14128;48.686;9.738;2022-12-20T03:54:30;12.37;;;9.17;;
315;SDS011;14128;48.686;9.738;2022-12-20T03:56:57;11.20;;;7.87;;
315;SDS011;14128;48.686;9.738;2022-12-20T03:59:24;13.00;;;7.33;;
315;SDS011;14128;48.686;9.738;2022-12-20T04:01:51;14.20;;;7.90;;
315;SDS011;14128;48.686;9.738;2022-12-20T04:04:18;10.80;;;8.20;;
315;SDS011;14128;48.686;9.738;2022-12-20T04:06:46;17.17;;;9.13;;
315;SDS011;14128;48.686;9.738;2022-12-20T04:09:13;11.13;;;8.40;;
315;SDS011;14128;48.686;9.738;2022-12-20T04:11:40;12.10;;;7.57;;
315;SDS011;14128;48.686;9.738;2022-12-20T04:14:06;10.00;;;7.20;;
315;SDS011;14128;48.686;9.738;2022-12-20T04:16:33;17.80;;;9.23;;
315;SDS011;14128;48.686;9.738;2022-12-20T04:19:00;14.20;;;9.77;;
315;SDS011;14128;48.686;9.738;2022-12-20T04:21:27;12.43;;;7.87;;
315;SDS011;14128;48.686;9.738;2022-12-20T04:23:57;11.50;;;8.33;;
315;SDS011;14128;48.686;9.738;2022-12-20T04:26:25;12.27;;;7.83;;
315;SDS011;14128;48.686;9.738;2022-12-20T04:28:52;11.07;;;7.67;;
315;SDS011;14128;48.686;9.738;2022-12-20T04:31:19;11.80;;;7.70;;
315;SDS011;14128;48.686;9.738;2022-12-20T04:33:46;10.90;;;7.30;;
315;SDS011;14128;48.686;9.738;2022-12-20T04:36:13;11.00;;;7.87;;
315;SDS011;14128;48.686;9.738;2022-12-20T04:38:40;12.93;;;7.97;;
315;SDS011;14128;48.686;9.738;2022-12-20T04:41:09;10.00;;;7.40;;
315;SDS011;14128;48.686;9.738;2022-12-20T04:43:46;10.67;;;7.87;;
315;SDS011;14128;48.686;9.738;2022-12-20T04:46:13;12.03;;;7.40;;
315;SDS011;14128;48.686;9.738;2022-12-20T04:48:40;10.60;;;7.20;;
315;SDS011;14128;48.686;9.738;2022-12-20T04:51:07;9.73;;;6.70;;
315;SDS011;14128;48.686;9.738;2022-12-20T04:53:34;10.93;;;7.97;;
315;SDS011;14128;48.686;9.738;2022-12-20T04:56:14;9.07;;;7.10;;
315;SDS011;14128;48.686;9.738;2022-12-20T04:58:42;10.20;;;8.50;;
315;SDS011;14128;48.686;9.738;2022-12-20T05:01:09;13.10;;;8.60;;
315;SDS011;14128;48.686;9.738;2022-12-20T05:03:36;10.53;;;7.63;;
315;SDS011;14128;48.686;9.738;2022-12-20T05:06:03;10.03;;;7.30;;
315;SDS011;14128;48.686;9.738;2022-12-20T05:08:31;9.93;;;7.43;;
315;SDS011;14128;48.686;9.738;2022-12-20T05:10:58;11.33;;;7.60;;
315;SDS011;14128;48.686;9.738;2022-12-20T05:13:26;13.17;;;9.27;;
315;SDS011;14128;48.686;9.738;2022-12-20T05:15:54;12.93;;;8.53;;
315;SDS011;14128;48.686;9.738;2022-12-20T05:18:22;10.70;;;9.47;;
315;SDS011;14128;48.686;9.738;2022-12-20T05:20:50;9.83;;;7.73;;
315;SDS011;14128;48.686;9.738;2022-12-20T05:23:39;10.87;;;7.20;;
315;SDS011;14128;48.686;9.738;2022-12-20T05:26:23;9.07;;;7.70;;
315;SDS011;14128;48.686;9.738;2022-12-20T05:28:52;10.07;;;6.87;;
315;SDS011;14128;48.686;9.738;2022-12-20T05:31:18;7.07;;;6.30;;
315;SDS011;14128;48.686;9.738;2022-12-20T05:33:45;8.97;;;6.03;;
315;SDS011;14128;48.686;9.738;2022-12-20T05:36:12;10.93;;;7.93;;
315;SDS011;14128;48.686;9.738;2022-12-20T05:38:39;11.13;;;7.90;;
315;SDS011;14128;48.686;9.738;2022-12-20T05:41:06;11.47;;;8.60;;
315;SDS011;14128;48.686;9.738;2022-12-20T05:43:32;12.23;;;7.17;;
315;SDS011;14128;48.686;9.738;2022-12-20T05:46:01;10.23;;;8.23;;
315;SDS011;14128;48.686;9.738;2022-12-20T05:48:27;10.47;;;7.50;;
315;SDS011;14128;48.686;9.738;2022-12-20T05:50:54;9.47;;;7.43;;
315;SDS011;14128;48.686;9.738;2022-12-20T05:53:21;9.47;;;7.77;;
315;SDS011;14128;48.686;9.738;2022-12-20T05:55:49;10.17;;;7.73;;
315;SDS011;14128;48.686;9.738;2022-12-20T05:58:17;10.33;;;7.43;;
315;SDS011;14128;48.686;9.738;2022-12-20T06:00:44;13.20;;;7.17;;
315;SDS011;14128;48.686;9.738;2022-12-20T06:03:13;7.87;;;6.77;;
315;SDS011;14128;48.686;9.738;2022-12-20T06:05:41;14.07;;;7.80;;
315;SDS011;14128;48.686;9.738;2022-12-20T06:08:08;9.97;;;6.90;;
315;SDS011;14128;48.686;9.738;2022-12-20T06:10:36;8.53;;;8.07;;
315;SDS011;14128;48.686;9.738;2022-12-20T06:13:05;11.33;;;7.67;;
315;SDS011;14128;48.686;9.738;2022-12-20T06:15:32;11.70;;;9.53;;
315;SDS011;14128;48.686;9.738;2022-12-20T06:17:59;11.30;;;7.77;;
315;SDS011;14128;48.686;9.738;2022-12-20T06:20:27;8.40;;;7.30;;
315;SDS011;14128;48.686;9.738;2022-12-20T06:22:55;10.50;;;7.33;;
315;SDS011;14128;48.686;9.738;2022-12-20T06:25:22;10.23;;;8.20;;
315;SDS011;14128;48.686;9.738;2022-12-20T06:27:49;11.93;;;8.63;;
315;SDS011;14128;48.686;9.738;2022-12-20T06:30:16;10.03;;;8.57;;
315;SDS011;14128;48.686;9.738;2022-12-20T06:32:43;11.17;;;8.03;;
315;SDS011;14128;48.686;9.738;2022-12-20T06:35:10;11.87;;;9.33;;
315;SDS011;14128;48.686;9.738;2022-12-20T06:37:39;9.20;;;7.87;;
315;SDS011;14128;48.686;9.738;2022-12-20T06:40:07;9.67;;;7.63;;
315;SDS011;14128;48.686;9.738;2022-12-20T06:42:35;13.20;;;8.57;;
315;SDS011;14128;48.686;9.738;2022-12-20T06:45:01;10.63;;;7.13;;
315;SDS011;14128;48.686;9.738;2022-12-20T06:47:29;11.83;;;9.03;;
315;SDS011;14128;48.686;9.738;2022-12-20T06:49:56;14.23;;;8.87;;
315;SDS011;14128;48.686;9.738;2022-12-20T06:52:23;10.53;;;8.10;;
315;SDS011;14128;48.686;9.738;2022-12-20T06:54:51;11.47;;;8.97;;
315;SDS011;14128;48.686;9.738;2022-12-20T06:57:18;9.30;;;6.73;;
315;SDS011;14128;48.686;9.738;2022-12-20T06:59:44;17.13;;;9.40;;
315;SDS011;14128;48.686;9.738;2022-12-20T07:02:11;12.50;;;7.67;;
315;SDS011;14128;48.686;9.738;2022-12-20T07:04:38;11.40;;;9.03;;
315;SDS011;14128;48.686;9.738;2022-12-20T07:07:05;13.03;;;9.03;;
315;SDS011;14128;48.686;9.738;2022-12-20T07:09:32;10.33;;;7.57;;
315;SDS011;14128;48.686;9.738;2022-12-20T07:12:00;9.37;;;8.03;;
315;SDS011;14128;48.686;9.738;2022-12-20T07:14:27;10.00;;;8.40;;
315;SDS011;14128;48.686;9.738;2022-12-20T07:16:54;8.27;;;7.60;;
315;SDS011;14128;48.686;9.738;2022-12-20T07:19:21;11.30;;;8.77;;
315;SDS011;14128;48.686;9.738;2022-12-20T07:21:48;13.77;;;7.57;;
315;SDS011;14128;48.686;9.738;2022-12-20T07:24:14;10.00;;;7.03;;
315;SDS011;14128;48.686;9.738;2022-12-20T07:26:42;11.33;;;7.13;;
315;SDS011;14128;48.686;9.738;2022-12-20T07:29:11;13.73;;;6.97;;
315;SDS011;14128;48.686;9.738;2022-12-20T07:31:38;9.30;;;6.50;;
315;SDS011;14128;48.686;9.738;2022-12-20T07:34:05;6.93;;;6.17;;
315;SDS011;14128;48.686;9.738;2022-12-20T07:36:32;6.77;;;5.33;;
315;SDS011;14128;48.686;9.738;2022-12-20T07:38:59;8.90;;;7.10;;
315;SDS011;14128;48.686;9.738;2022-12-20T07:41:26;9.27;;;6.87;;
315;SDS011;14128;48.686;9.738;2022-12-20T07:43:53;10.87;;;7.40;;
315;SDS011;14128;48.686;9.738;2022-12-20T07:46:23;12.00;;;7.00;;
315;SDS011;14128;48.686;9.738;2022-12-20T07:48:50;9.30;;;7.07;;
315;SDS011;14128;48.686;9.738;2022-12-20T07:51:18;7.53;;;6.90;;
315;SDS011;14128;48.686;9.738;2022-12-20T07:53:49;8.00;;;5.50;;
315;SDS011;14128;48.686;9.738;2022-12-20T07:56:19;8.80;;;7.30;;
315;SDS011;14128;48.686;9.738;2022-12-20T07:58:47;9.83;;;7.13;;
315;SDS011;14128;48.686;9.738;2022-12-20T08:01:17;8.57;;;7.30;;
315;SDS011;14128;48.686;9.738;2022-12-20T08:03:47;10.27;;;7.27;;
315;SDS011;14128;48.686;9.738;2022-12-20T08:06:17;8.30;;;7.20;;
315;SDS011;14128;48.686;9.738;2022-12-20T08:08:46;8.13;;;6.87;;
315;SDS011;14128;48.686;9.738;2022-12-20T08:11:16;8.13;;;7.10;;
315;SDS011;14128;48.686;9.738;2022-12-20T08:13:43;10.70;;;7.80;;
315;SDS011;14128;48.686;9.738;2022-12-20T08:16:11;9.77;;;8.10;;
315;SDS011;14128;48.686;9.738;2022-12-20T08:18:37;8.43;;;7.50;;
315;SDS011;14128;48.686;9.738;2022-12-20T08:21:06;10.70;;;7.20;;
315;SDS011;14128;48.686;9.738;2022-12-20T08:23:34;12.90;;;8.30;;
315;SDS011;14128;48.686;9.738;2022-12-20T08:26:01;10.23;;;8.20;;
315;SDS011;14128;48.686;9.738;2022-12-20T08:28:28;12.67;;;8.20;;
315;SDS011;14128;48.686;9.738;2022-12-20T08:30:59;14.10;;;10.73;;
315;SDS011;14128;48.686;9.738;2022-12-20T08:33:26;14.97;;;11.80;;
315;SDS011;14128;48.686;9.738;2022-12-20T08:35:57;23.13;;;17.17;;
315;SDS011;14128;48.686;9.738;2022-12-20T08:38:26;17.47;;;12.43;;
315;SDS011;14128;48.686;9.738;2022-12-20T08:40:53;17.07;;;11.93;;
315;SDS011;14128;48.686;9.738;2022-12-20T08:43:20;20.00;;;13.97;;
315;SDS011;14128;48.686;9.738;2022-12-20T08:45:50;24.90;;;16.70;;
315;SDS011;14128;48.686;9.738;2022-12-20T08:48:19;17.23;;;14.03;;
315;SDS011;14128;48.686;9.738;2022-12-20T08:50:46;18.40;;;12.40;;
315;SDS011;14128;48.686;9.738;2022-12-20T08:53:13;26.77;;;16.27;;
315;SDS011;14128;48.686;9.738;2022-12-20T08:55:41;30.90;;;24.40;;
315;SDS011;14128;48.686;9.738;2022-12-20T08:58:07;30.27;;;21.03;;
315;SDS011;14128;48.686;9.738;2022-12-20T09:00:34;25.77;;;18.93;;
315;SDS011;14128;48.686;9.738;2022-12-20T09:03:02;20.00;;;16.80;;
315;SDS011;14128;48.686;9.738;2022-12-20T09:05:28;27.33;;;17.00;;
315;SDS011;14128;48.686;9.738;2022-12-20T09:07:55;24.37;;;18.07;;
315;SDS011;14128;48.686;9.738;2022-12-20T09:10:22;21.33;;;15.03;;
315;SDS011;14128;48.686;9.738;2022-12-20T09:12:50;22.63;;;15.60;;
315;SDS011;14128;48.686;9.738;2022-12-20T09:15:17;88.90;;;46.27;;
315;SDS011;14128;48.686;9.738;2022-12-20T09:17:44;57.93;;;30.17;;
315;SDS011;14128;48.686;9.738;2022-12-20T09:20:11;44.00;;;26.20;;
315;SDS011;14128;48.686;9.738;2022-12-20T09:22:39;25.13;;;16.77;;
315;SDS011;14128;48.686;9.738;2022-12-20T09:25:06;28.37;;;18.73;;
315;SDS011;14128;48.686;9.738;2022-12-20T09:27:34;26.30;;;17.33;;
315;SDS011;14128;48.686;9.738;2022-12-20T09:30:03;26.10;;;18.00;;
315;SDS011;14128;48.686;9.738;2022-12-20T09:32:30;21.60;;;17.80;;
315;SDS011;14128;48.686;9.738;2022-12-20T09:34:57;26.50;;;16.77;;
315;SDS011;14128;48.686;9.738;2022-12-20T09:37:24;20.60;;;15.60;;
315;SDS011;14128;48.686;9.738;2022-12-20T09:39:51;27.50;;;19.97;;
315;SDS011;14128;48.686;9.738;2022-12-20T09:42:18;24.20;;;19.30;;
315;SDS011;14128;48.686;9.738;2022-12-20T09:44:49;27.40;;;18.07;;
315;SDS011;14128;48.686;9.738;2022-12-20T09:47:18;29.10;;;20.27;;
315;SDS011;14128;48.686;9.738;2022-12-20T09:49:48;25.00;;;16.20;;
315;SDS011;14128;48.686;9.738;2022-12-20T09:52:23;13.53;;;11.77;;
315;SDS011;14128;48.686;9.738;2022-12-20T09:54:56;10.67;;;6.53;;
315;SDS011;14128;48.686;9.738;2022-12-20T09:57:38;10.70;;;7.43;;
315;SDS011;14128;48.686;9.738;2022-12-20T10:00:13;5.77;;;4.20;;
315;SDS011;14128;48.686;9.738;2022-12-20T10:02:42;7.67;;;5.10;;
315;SDS011;14128;48.686;9.738;2022-12-20T10:05:11;7.10;;;4.57;;
315;SDS011;14128;48.686;9.738;2022-12-20T10:07:41;6.30;;;4.43;;
315;SDS011;14128;48.686;9.738;2022-12-20T10:10:25;6.13;;;4.57;;
315;SDS011;14128;48.686;9.738;2022-12-20T10:13:09;9.23;;;4.70;;
315;SDS011;14128;48.686;9.738;2022-12-20T10:15:49;5.70;;;4.30;;
315;SDS011;14128;48.686;9.738;2022-12-20T10:18:27;5.00;;;4.40;;
315;SDS011;14128;48.686;9.738;2022-12-20T10:21:10;5.80;;;4.30;;
315;SDS011;14128;48.686;9.738;2022-12-20T10:23:45;6.73;;;5.20;;
315;SDS011;14128;48.686;9.738;2022-12-20T10:26:21;4.90;;;3.90;;
315;SDS011;14128;48.686;9.738;2022-12-20T10:28:48;5.47;;;3.70;;
315;SDS011;14128;48.686;9.738;2022-12-20T10:31:15;5.13;;;3.80;;
315;SDS011;14128;48.686;9.738;2022-12-20T10:33:44;5.83;;;4.27;;
315;SDS011;14128;48.686;9.738;2022-12-20T10:36:18;7.57;;;3.53;;
315;SDS011;14128;48.686;9.738;2022-12-20T10:38:47;3.73;;;3.10;;
315;SDS011;14128;48.686;9.738;2022-12-20T10:41:16;6.30;;;4.07;;
315;SDS011;14128;48.686;9.738;2022-12-20T10:43:45;6.07;;;3.57;;
315;SDS011;14128;48.686;9.738;2022-12-20T10:46:14;6.20;;;3.00;;
315;SDS011;14128;48.686;9.738;2022-12-20T10:48:42;5.53;;;3.80;;
315;SDS011;14128;48.686;9.738;2022-12-20T10:51:14;5.17;;;4.20;;
315;SDS011;14128;48.686;9.738;2022-12-20T10:53:49;3.90;;;3.50;;
315;SDS011;14128;48.686;9.738;2022-12-20T10:56:20;4.07;;;3.70;;
315;SDS011;14128;48.686;9.738;2022-12-20T10:58:52;4.87;;;3.40;;
315;SDS011;14128;48.686;9.738;2022-12-20T11:01:21;3.63;;;2.90;;
315;SDS011;14128;48.686;9.738;2022-12-20T11:03:53;5.57;;;3.53;;
315;SDS011;14128;48.686;9.738;2022-12-20T11:06:23;6.97;;;4.27;;
315;SDS011;14128;48.686;9.738;2022-12-20T11:08:53;4.50;;;3.57;;
315;SDS011;14128;48.686;9.738;2022-12-20T11:11:37;5.70;;;3.83;;
315;SDS011;14128;48.686;9.738;2022-12-20T11:14:12;6.63;;;3.70;;
315;SDS011;14128;48.686;9.738;2022-12-20T11:16:40;4.23;;;3.80;;
315;SDS011;14128;48.686;9.738;2022-12-20T11:19:20;7.27;;;4.50;;
315;SDS011;14128;48.686;9.738;2022-12-20T11:22:07;6.70;;;4.13;;
315;SDS011;14128;48.686;9.738;2022-12-20T11:24:44;6.87;;;3.93;;
315;SDS011;14128;48.686;9.738;2022-12-20T11:27:19;5.00;;;3.93;;
315;SDS011;14128;48.686;9.738;2022-12-20T11:30:03;5.83;;;3.60;;
315;SDS011;14128;48.686;9.738;2022-12-20T11:32:48;5.00;;;3.97;;
315;SDS011;14128;48.686;9.738;2022-12-20T11:35:30;6.37;;;4.23;;
315;SDS011;14128;48.686;9.738;2022-12-20T11:38:09;11.30;;;9.17;;
315;SDS011;14128;48.686;9.738;2022-12-20T11:40:43;13.57;;;10.57;;
315;SDS011;14128;48.686;9.738;2022-12-20T11:43:23;11.13;;;9.77;;
315;SDS011;14128;48.686;9.738;2022-12-20T11:46:03;11.20;;;9.20;;
315;SDS011;14128;48.686;9.738;2022-12-20T11:48:49;9.20;;;8.47;;
315;SDS011;14128;48.686;9.738;2022-12-20T11:51:34;8.20;;;5.00;;
315;SDS011;14128;48.686;9.738;2022-12-20T11:54:11;8.83;;;4.50;;
315;SDS011;14128;48.686;9.738;2022-12-20T11:56:43;7.83;;;3.97;;
315;SDS011;14128;48.686;9.738;2022-12-20T11:59:14;6.03;;;4.03;;
315;SDS011;14128;48.686;9.738;2022-12-20T12:01:46;5.53;;;4.50;;
315;SDS011;14128;48.686;9.738;2022-12-20T12:04:19;4.87;;;3.53;;
315;SDS011;14128;48.686;9.738;2022-12-20T12:06:50;5.43;;;3.37;;
315;SDS011;14128;48.686;9.738;2022-12-20T12:09:26;6.03;;;4.57;;
315;SDS011;14128;48.686;9.738;2022-12-20T12:11:59;4.57;;;4.23;;
315;SDS011;14128;48.686;9.738;2022-12-20T12:14:32;4.27;;;3.80;;
315;SDS011;14128;48.686;9.738;2022-12-20T12:17:07;5.60;;;4.07;;
315;SDS011;14128;48.686;9.738;2022-12-20T12:19:49;11.10;;;10.30;;
315;SDS011;14128;48.686;9.738;2022-12-20T12:22:21;16.53;;;11.70;;
315;SDS011;14128;48.686;9.738;2022-12-20T12:24:57;18.63;;;14.10;;
315;SDS011;14128;48.686;9.738;2022-12-20T12:27:27;17.17;;;13.77;;
315;SDS011;14128;48.686;9.738;2022-12-20T12:29:54;19.20;;;14.77;;
315;SDS011;14128;48.686;9.738;2022-12-20T12:32:24;17.90;;;13.23;;
315;SDS011;14128;48.686;9.738;2022-12-20T12:35:02;16.57;;;13.63;;
315;SDS011;14128;48.686;9.738;2022-12-20T12:37:47;32.50;;;19.67;;
315;SDS011;14128;48.686;9.738;2022-12-20T12:40:34;24.30;;;16.87;;
315;SDS011;14128;48.686;9.738;2022-12-20T12:43:27;20.37;;;13.80;;
315;SDS011;14128;48.686;9.738;2022-12-20T12:46:14;25.43;;;16.30;;
315;SDS011;14128;48.686;9.738;2022-12-20T12:48:44;14.03;;;13.07;;
315;SDS011;14128;48.686;9.738;2022-12-20T12:51:18;13.93;;;13.23;;
315;SDS011;14128;48.686;9.738;2022-12-20T12:53:51;15.60;;;12.90;;
315;SDS011;14128;48.686;9.738;2022-12-20T12:59:08;14.37;;;13.57;;
315;SDS011;14128;48.686;9.738;2022-12-20T13:01:54;14.10;;;13.47;;
315;SDS011;14128;48.686;9.738;2022-12-20T13:04:51;14.13;;;11.90;;
315;SDS011;14128;48.686;9.738;2022-12-20T13:07:25;18.20;;;12.23;;
315;SDS011;14128;48.686;9.738;2022-12-20T13:09:55;17.10;;;12.67;;
315;SDS011;14128;48.686;9.738;2022-12-20T13:19:00;12.73;;;11.90;;
315;SDS011;14128;48.686;9.738;2022-12-20T13:21:42;19.63;;;13.20;;
315;SDS011;14128;48.686;9.738;2022-12-20T13:27:22;17.73;;;12.53;;
315;SDS011;14128;48.686;9.738;2022-12-20T13:36:04;97.10;;;46.63;;
315;SDS011;14128;48.686;9.738;2022-12-20T13:39:27;20.13;;;15.40;;
315;SDS011;14128;48.686;9.738;2022-12-20T13:42:07;16.50;;;14.33;;
315;SDS011;14128;48.686;9.738;2022-12-20T13:44:44;15.30;;;12.30;;
315;SDS011;14128;48.686;9.738;2022-12-20T13:47:15;18.73;;;14.77;;
315;SDS011;14128;48.686;9.738;2022-12-20T13:50:22;19.90;;;14.17;;
315;SDS011;14128;48.686;9.738;2022-12-20T13:52:59;16.40;;;12.60;;
315;SDS011;14128;48.686;9.738;2022-12-20T13:55:31;17.00;;;13.30;;
315;SDS011;14128;48.686;9.738;2022-12-20T13:58:05;22.80;;;15.57;;
315;SDS011;14128;48.686;9.738;2022-12-20T14:00:37;18.20;;;14.30;;
315;SDS011;14128;48.686;9.738;2022-12-20T14:03:06;11.60;;;10.90;;
315;SDS011;14128;48.686;9.738;2022-12-20T14:05:42;16.57;;;13.37;;
315;SDS011;14128;48.686;9.738;2022-12-20T14:08:12;17.40;;;14.87;;
315;SDS011;14128;48.686;9.738;2022-12-20T14:10:41;29.80;;;20.20;;
315;SDS011;14128;48.686;9.738;2022-12-20T14:13:16;15.43;;;13.07;;
315;SDS011;14128;48.686;9.738;2022-12-20T14:15:45;16.23;;;12.73;;
315;SDS011;14128;48.686;9.738;2022-12-20T14:18:15;20.83;;;13.93;;
315;SDS011;14128;48.686;9.738;2022-12-20T14:20:45;28.03;;;18.30;;
315;SDS011;14128;48.686;9.738;2022-12-20T14:23:16;18.80;;;14.27;;
315;SDS011;14128;48.686;9.738;2022-12-20T14:25:45;18.80;;;12.37;;
315;SDS011;14128;48.686;9.738;2022-12-20T14:28:17;8.33;;;7.33;;
315;SDS011;14128;48.686;9.738;2022-12-20T14:30:50;6.43;;;5.10;;
315;SDS011;14128;48.686;9.738;2022-12-20T14:33:21;6.03;;;4.90;;
315;SDS011;14128;48.686;9.738;2022-12-20T14:35:54;7.03;;;4.90;;
315;SDS011;14128;48.686;9.738;2022-12-20T14:38:21;5.23;;;4.13;;
315;SDS011;14128;48.686;9.738;2022-12-20T14:40:49;4.23;;;3.87;;
315;SDS011;14128;48.686;9.738;2022-12-20T14:43:23;3.40;;;2.37;;
315;SDS011;14128;48.686;9.738;2022-12-20T14:46:05;5.80;;;4.47;;
315;SDS011;14128;48.686;9.738;2022-12-20T14:48:42;4.97;;;3.57;;
315;SDS011;14128;48.686;9.738;2022-12-20T14:51:10;4.90;;;4.10;;
315;SDS011;14128;48.686;9.738;2022-12-20T14:53:38;4.13;;;3.33;;
315;SDS011;14128;48.686;9.738;2022-12-20T14:56:12;5.90;;;5.50;;
315;SDS011;14128;48.686;9.738;2022-12-20T14:58:40;7.47;;;3.90;;
315;SDS011;14128;48.686;9.738;2022-12-20T15:01:16;4.50;;;3.40;;
315;SDS011;14128;48.686;9.738;2022-12-20T15:03:47;4.20;;;3.27;;
315;SDS011;14128;48.686;9.738;2022-12-20T15:06:30;7.80;;;3.90;;
315;SDS011;14128;48.686;9.738;2022-12-20T15:08:58;7.70;;;4.77;;
315;SDS011;14128;48.686;9.738;2022-12-20T15:11:25;7.23;;;4.33;;
315;SDS011;14128;48.686;9.738;2022-12-20T15:13:52;6.43;;;4.70;;
315;SDS011;14128;48.686;9.738;2022-12-20T15:16:20;7.00;;;4.20;;
315;SDS011;14128;48.686;9.738;2022-12-20T15:18:48;5.33;;;4.60;;
315;SDS011;14128;48.686;9.738;2022-12-20T15:21:17;9.67;;;5.23;;
315;SDS011;14128;48.686;9.738;2022-12-20T15:23:54;4.07;;;3.77;;
315;SDS011;14128;48.686;9.738;2022-12-20T15:26:22;9.23;;;4.60;;
315;SDS011;14128;48.686;9.738;2022-12-20T15:28:50;4.83;;;4.00;;
315;SDS011;14128;48.686;9.738;2022-12-20T15:31:18;3.60;;;3.40;;
315;SDS011;14128;48.686;9.738;2022-12-20T15:33:46;5.90;;;4.27;;
315;SDS011;14128;48.686;9.738;2022-12-20T15:36:14;5.40;;;3.83;;
315;SDS011;14128;48.686;9.738;2022-12-20T15:38:43;5.70;;;3.80;;
315;SDS011;14128;48.686;9.738;2022-12-20T15:41:13;6.70;;;4.60;;
315;SDS011;14128;48.686;9.738;2022-12-20T15:43:44;6.40;;;4.10;;
315;SDS011;14128;48.686;9.738;2022-12-20T15:46:11;5.30;;;3.83;;